首页
METAR-TAF:

METAR-TAF

机场 :

愛丁堡機場

爱丁堡, 苏格兰

纬度: 55-57N, 经度: 003-21W, 海拔: 41米

当前天气观测

该预报发布于21分钟前的23:20 UTC
风速4节,风向西转西南
温度 7°C
湿度 93%
气压 1011 hPa
能见度10公里或以上
少量云层高于2500英尺
多云层高于3200英尺

METAR: EGPH 032320Z 25004KT 9999 FEW025 BKN032 07/06 Q1011

时间: 00:41 (23:41 UTC)

预报

该预报发布于47分钟前的22:54 UTC
预报有效从04日的 00点(UTC)到 04日的 24点(UTC)
风速6节,风向东北
能见度10公里或以上
多云层高于3500英尺
几率 30% :
短暂存在
从 04日的 08点(UTC)到 04日的 21点(UTC)
能見度: 8000
多云层高于1400英尺
阵雨

TAF: EGPH 032254Z 0400/0424 05006KT 9999 BKN035 PROB30 TEMPO 0408/0421 8000 SHRA BKN014

超过4000个机场的气象观测和天气预报(METAR&TAF报告)。

可查询的气象台以黄色和红色小点在地图上表示。

将鼠标移到小点上方,可查看气象台名称。

然后点击查看天气观测和预报。

如需切换地图:点击带黑十字的绿色按钮放大地图;点击带横线的绿色按钮缩小地图;或者点击绿色箭头查看邻近地区的地图。


METAR-TAF: